sensor_id;sensor_type;location;lat;lon;timestamp;pressure;altitude;pressure_sealevel;temperature;humidity
66547;BME280;53400;50.364;14.874;2023-02-22T00:02:14;98675.28;;;8.03;92.64
66547;BME280;53400;50.364;14.874;2023-02-22T00:04:52;98672.22;;;8.18;92.21
66547;BME280;53400;50.364;14.874;2023-02-22T00:07:18;98668.84;;;8.11;92.64
66547;BME280;53400;50.364;14.874;2023-02-22T00:09:47;98672.09;;;8.13;92.14
66547;BME280;53400;50.364;14.874;2023-02-22T00:12:13;98673.47;;;8.15;91.86
66547;BME280;53400;50.364;14.874;2023-02-22T00:14:38;98674.19;;;8.11;91.76
66547;BME280;53400;50.364;14.874;2023-02-22T00:17:05;98671.66;;;8.16;92.30
66547;BME280;53400;50.364;14.874;2023-02-22T00:19:30;98669.09;;;8.21;91.65
66547;BME280;53400;50.364;14.874;2023-02-22T00:21:57;98671.91;;;7.96;92.13
66547;BME280;53400;50.364;14.874;2023-02-22T00:24:22;98671.47;;;7.99;92.89
66547;BME280;53400;50.364;14.874;2023-02-22T00:26:51;98670.47;;;7.81;93.22
66547;BME280;53400;50.364;14.874;2023-02-22T00:29:17;98670.41;;;7.88;93.28
66547;BME280;53400;50.364;14.874;2023-02-22T00:31:43;98664.78;;;7.78;93.75
66547;BME280;53400;50.364;14.874;2023-02-22T00:34:09;98669.81;;;7.86;92.87
66547;BME280;53400;50.364;14.874;2023-02-22T00:36:34;98663.72;;;7.79;93.12
66547;BME280;53400;50.364;14.874;2023-02-22T00:39:00;98667.72;;;7.88;92.41
66547;BME280;53400;50.364;14.874;2023-02-22T00:41:26;98668.94;;;8.04;90.96
66547;BME280;53400;50.364;14.874;2023-02-22T00:43:53;98665.25;;;7.56;93.03
66547;BME280;53400;50.364;14.874;2023-02-22T00:46:19;98662.38;;;7.58;92.78
66547;BME280;53400;50.364;14.874;2023-02-22T00:48:45;98674.22;;;7.44;93.87
66547;BME280;53400;50.364;14.874;2023-02-22T00:51:11;98663.72;;;7.49;93.09
66547;BME280;53400;50.364;14.874;2023-02-22T00:53:37;98656.09;;;7.52;92.89
66547;BME280;53400;50.364;14.874;2023-02-22T00:56:04;98662.50;;;7.63;92.55
66547;BME280;53400;50.364;14.874;2023-02-22T00:58:29;98659.50;;;7.90;91.25
66547;BME280;53400;50.364;14.874;2023-02-22T01:00:58;98653.06;;;7.49;92.98
66547;BME280;53400;50.364;14.874;2023-02-22T01:03:23;98654.03;;;7.36;93.40
66547;BME280;53400;50.364;14.874;2023-02-22T01:05:49;98655.34;;;7.27;94.38
66547;BME280;53400;50.364;14.874;2023-02-22T01:08:16;98654.47;;;7.15;94.48
66547;BME280;53400;50.364;14.874;2023-02-22T01:10:42;98650.91;;;7.21;94.35
66547;BME280;53400;50.364;14.874;2023-02-22T01:13:09;98654.78;;;7.43;93.35
66547;BME280;53400;50.364;14.874;2023-02-22T01:15:38;98647.75;;;7.49;91.73
66547;BME280;53400;50.364;14.874;2023-02-22T01:18:06;98654.50;;;7.63;91.06
66547;BME280;53400;50.364;14.874;2023-02-22T01:20:32;98653.88;;;7.49;92.04
66547;BME280;53400;50.364;14.874;2023-02-22T01:23:00;98661.88;;;7.31;91.23
66547;BME280;53400;50.364;14.874;2023-02-22T01:25:29;98659.94;;;6.83;93.64
66547;BME280;53400;50.364;14.874;2023-02-22T01:27:56;98661.69;;;6.71;95.44
66547;BME280;53400;50.364;14.874;2023-02-22T01:30:25;98659.66;;;6.66;97.23
66547;BME280;53400;50.364;14.874;2023-02-22T01:32:51;98667.13;;;6.57;98.10
66547;BME280;53400;50.364;14.874;2023-02-22T01:35:24;98665.72;;;6.55;98.20
66547;BME280;53400;50.364;14.874;2023-02-22T01:37:52;98663.91;;;6.49;98.16
66547;BME280;53400;50.364;14.874;2023-02-22T01:40:21;98658.09;;;6.58;97.68
66547;BME280;53400;50.364;14.874;2023-02-22T01:42:53;98656.09;;;6.54;97.53
66547;BME280;53400;50.364;14.874;2023-02-22T01:48:33;98651.25;;;6.44;98.53
66547;BME280;53400;50.364;14.874;2023-02-22T01:51:05;98660.09;;;6.38;97.59
66547;BME280;53400;50.364;14.874;2023-02-22T01:53:37;98660.78;;;6.33;97.53
66547;BME280;53400;50.364;14.874;2023-02-22T01:56:05;98658.09;;;6.33;97.90
66547;BME280;53400;50.364;14.874;2023-02-22T01:58:32;98662.59;;;6.33;98.16
66547;BME280;53400;50.364;14.874;2023-02-22T02:01:00;98664.50;;;6.51;96.73
66547;BME280;53400;50.364;14.874;2023-02-22T02:03:29;98665.16;;;6.46;95.77
66547;BME280;53400;50.364;14.874;2023-02-22T02:06:00;98666.19;;;6.45;94.82
66547;BME280;53400;50.364;14.874;2023-02-22T02:08:34;98668.94;;;6.32;95.13
66547;BME280;53400;50.364;14.874;2023-02-22T02:11:03;98666.03;;;6.15;97.14
66547;BME280;53400;50.364;14.874;2023-02-22T02:13:29;98662.66;;;6.26;96.29
66547;BME280;53400;50.364;14.874;2023-02-22T02:15:55;98661.19;;;6.30;95.93
66547;BME280;53400;50.364;14.874;2023-02-22T02:18:22;98662.50;;;6.21;95.95
66547;BME280;53400;50.364;14.874;2023-02-22T02:24:07;98659.56;;;5.97;96.95
66547;BME280;53400;50.364;14.874;2023-02-22T02:26:49;98662.03;;;5.92;99.13
66547;BME280;53400;50.364;14.874;2023-02-22T02:32:37;98657.63;;;6.43;97.01
66547;BME280;53400;50.364;14.874;2023-02-22T02:35:09;98656.16;;;6.47;96.69
66547;BME280;53400;50.364;14.874;2023-02-22T02:37:45;98655.81;;;6.62;96.08
66547;BME280;53400;50.364;14.874;2023-02-22T02:40:21;98658.47;;;6.62;96.63
66547;BME280;53400;50.364;14.874;2023-02-22T02:42:54;98649.50;;;6.56;96.44
66547;BME280;53400;50.364;14.874;2023-02-22T02:45:26;98656.19;;;6.40;99.19
66547;BME280;53400;50.364;14.874;2023-02-22T02:47:57;98652.50;;;6.16;100.00
66547;BME280;53400;50.364;14.874;2023-02-22T02:50:26;98660.13;;;6.06;100.00
66547;BME280;53400;50.364;14.874;2023-02-22T02:52:56;98649.13;;;6.03;100.00
66547;BME280;53400;50.364;14.874;2023-02-22T02:55:24;98648.72;;;5.99;100.00
66547;BME280;53400;50.364;14.874;2023-02-22T02:57:50;98644.75;;;6.08;100.00
66547;BME280;53400;50.364;14.874;2023-02-22T03:00:19;98639.75;;;6.25;100.00
66547;BME280;53400;50.364;14.874;2023-02-22T03:03:01;98640.94;;;6.29;100.00
66547;BME280;53400;50.364;14.874;2023-02-22T03:05:44;98646.44;;;6.34;100.00
66547;BME280;53400;50.364;14.874;2023-02-22T03:08:17;98644.63;;;6.28;100.00
66547;BME280;53400;50.364;14.874;2023-02-22T03:10:53;98640.44;;;6.14;100.00
66547;BME280;53400;50.364;14.874;2023-02-22T03:13:28;98641.31;;;6.33;100.00
66547;BME280;53400;50.364;14.874;2023-02-22T03:16:03;98645.28;;;6.24;100.00
66547;BME280;53400;50.364;14.874;2023-02-22T03:18:45;98640.34;;;6.52;100.00
66547;BME280;53400;50.364;14.874;2023-02-22T03:21:18;98638.63;;;6.39;100.00
66547;BME280;53400;50.364;14.874;2023-02-22T03:23:50;98644.03;;;6.51;99.81
66547;BME280;53400;50.364;14.874;2023-02-22T03:26:24;98638.38;;;6.66;99.60
66547;BME280;53400;50.364;14.874;2023-02-22T03:28:54;98640.56;;;6.76;97.24
66547;BME280;53400;50.364;14.874;2023-02-22T03:31:22;98643.44;;;6.93;97.15
66547;BME280;53400;50.364;14.874;2023-02-22T03:33:54;98641.72;;;6.80;97.15
66547;BME280;53400;50.364;14.874;2023-02-22T03:36:24;98642.38;;;6.75;97.94
66547;BME280;53400;50.364;14.874;2023-02-22T03:38:54;98642.09;;;6.40;99.77
66547;BME280;53400;50.364;14.874;2023-02-22T03:41:23;98635.06;;;6.20;100.00
66547;BME280;53400;50.364;14.874;2023-02-22T03:43:53;98637.16;;;6.18;100.00
66547;BME280;53400;50.364;14.874;2023-02-22T03:46:20;98631.94;;;6.30;100.00
66547;BME280;53400;50.364;14.874;2023-02-22T03:48:52;98631.31;;;6.53;99.48
66547;BME280;53400;50.364;14.874;2023-02-22T03:51:22;98636.88;;;6.52;98.13
66547;BME280;53400;50.364;14.874;2023-02-22T03:53:49;98635.34;;;6.62;97.40
66547;BME280;53400;50.364;14.874;2023-02-22T03:56:20;98634.38;;;6.75;96.51
66547;BME280;53400;50.364;14.874;2023-02-22T03:58:48;98639.88;;;6.80;96.60
66547;BME280;53400;50.364;14.874;2023-02-22T04:01:15;98627.44;;;6.74;96.75
66547;BME280;53400;50.364;14.874;2023-02-22T04:03:41;98637.25;;;6.55;97.95
66547;BME280;53400;50.364;14.874;2023-02-22T04:06:09;98628.50;;;6.48;99.03
66547;BME280;53400;50.364;14.874;2023-02-22T04:08:35;98632.44;;;6.46;99.40
66547;BME280;53400;50.364;14.874;2023-02-22T04:11:01;98625.84;;;6.48;98.75
66547;BME280;53400;50.364;14.874;2023-02-22T04:13:27;98631.56;;;6.52;98.90
66547;BME280;53400;50.364;14.874;2023-02-22T04:15:53;98625.59;;;6.75;97.98
66547;BME280;53400;50.364;14.874;2023-02-22T04:18:19;98631.34;;;6.72;97.61
66547;BME280;53400;50.364;14.874;2023-02-22T04:20:45;98630.91;;;6.75;97.82
66547;BME280;53400;50.364;14.874;2023-02-22T04:23:12;98628.88;;;6.77;97.23
66547;BME280;53400;50.364;14.874;2023-02-22T04:25:38;98631.00;;;6.86;96.38
66547;BME280;53400;50.364;14.874;2023-02-22T04:28:04;98630.78;;;6.70;97.28
66547;BME280;53400;50.364;14.874;2023-02-22T04:30:30;98624.50;;;6.64;98.08
66547;BME280;53400;50.364;14.874;2023-02-22T04:32:55;98625.69;;;6.86;96.87
66547;BME280;53400;50.364;14.874;2023-02-22T04:35:22;98626.38;;;6.82;97.13
66547;BME280;53400;50.364;14.874;2023-02-22T04:37:47;98621.75;;;6.71;98.13
66547;BME280;53400;50.364;14.874;2023-02-22T04:40:16;98620.34;;;6.68;98.30
66547;BME280;53400;50.364;14.874;2023-02-22T04:42:41;98615.91;;;6.62;98.28
66547;BME280;53400;50.364;14.874;2023-02-22T04:45:10;98617.97;;;6.60;98.36
66547;BME280;53400;50.364;14.874;2023-02-22T04:47:36;98619.25;;;6.76;97.45
66547;BME280;53400;50.364;14.874;2023-02-22T04:50:02;98616.50;;;6.64;96.97
66547;BME280;53400;50.364;14.874;2023-02-22T04:52:28;98618.19;;;6.58;97.88
66547;BME280;53400;50.364;14.874;2023-02-22T04:54:54;98618.94;;;6.65;97.44
66547;BME280;53400;50.364;14.874;2023-02-22T04:57:21;98613.47;;;6.60;96.34
66547;BME280;53400;50.364;14.874;2023-02-22T04:59:47;98615.53;;;6.08;99.54
66547;BME280;53400;50.364;14.874;2023-02-22T05:02:13;98611.25;;;6.07;99.43
66547;BME280;53400;50.364;14.874;2023-02-22T05:04:39;98607.50;;;5.83;100.00
66547;BME280;53400;50.364;14.874;2023-02-22T05:07:05;98612.03;;;5.76;100.00
66547;BME280;53400;50.364;14.874;2023-02-22T05:09:31;98597.19;;;5.62;100.00
66547;BME280;53400;50.364;14.874;2023-02-22T05:11:56;98600.47;;;5.64;100.00
66547;BME280;53400;50.364;14.874;2023-02-22T05:14:24;98605.41;;;5.53;100.00
66547;BME280;53400;50.364;14.874;2023-02-22T05:16:53;98607.41;;;5.65;100.00
66547;BME280;53400;50.364;14.874;2023-02-22T05:19:19;98606.41;;;5.59;100.00
66547;BME280;53400;50.364;14.874;2023-02-22T05:21:45;98599.13;;;5.48;100.00
66547;BME280;53400;50.364;14.874;2023-02-22T05:24:11;98597.09;;;5.43;100.00
66547;BME280;53400;50.364;14.874;2023-02-22T05:26:37;98591.97;;;5.48;100.00
66547;BME280;53400;50.364;14.874;2023-02-22T05:29:03;98603.59;;;5.47;100.00
66547;BME280;53400;50.364;14.874;2023-02-22T05:31:31;98601.94;;;5.53;100.00
66547;BME280;53400;50.364;14.874;2023-02-22T05:33:57;98599.66;;;5.63;100.00
66547;BME280;53400;50.364;14.874;2023-02-22T05:36:22;98605.78;;;5.64;100.00
66547;BME280;53400;50.364;14.874;2023-02-22T05:38:48;98598.47;;;5.52;100.00
66547;BME280;53400;50.364;14.874;2023-02-22T05:41:14;98605.84;;;5.50;100.00
66547;BME280;53400;50.364;14.874;2023-02-22T05:43:40;98605.69;;;5.45;100.00
66547;BME280;53400;50.364;14.874;2023-02-22T05:46:06;98604.47;;;5.35;100.00
66547;BME280;53400;50.364;14.874;2023-02-22T05:48:34;98599.19;;;5.35;100.00
66547;BME280;53400;50.364;14.874;2023-02-22T05:51:00;98603.31;;;5.24;100.00
66547;BME280;53400;50.364;14.874;2023-02-22T05:53:26;98600.94;;;5.47;100.00
66547;BME280;53400;50.364;14.874;2023-02-22T05:55:52;98608.50;;;5.50;100.00
66547;BME280;53400;50.364;14.874;2023-02-22T05:58:18;98612.31;;;5.61;100.00
66547;BME280;53400;50.364;14.874;2023-02-22T06:00:44;98613.97;;;6.01;100.00
66547;BME280;53400;50.364;14.874;2023-02-22T06:03:10;98619.41;;;5.74;100.00
66547;BME280;53400;50.364;14.874;2023-02-22T06:05:38;98613.41;;;5.47;100.00
66547;BME280;53400;50.364;14.874;2023-02-22T06:08:05;98618.53;;;5.48;100.00
66547;BME280;53400;50.364;14.874;2023-02-22T06:10:31;98622.38;;;5.52;100.00
66547;BME280;53400;50.364;14.874;2023-02-22T06:12:59;98616.69;;;5.49;100.00
66547;BME280;53400;50.364;14.874;2023-02-22T06:15:27;98621.22;;;5.42;100.00
66547;BME280;53400;50.364;14.874;2023-02-22T06:17:54;98628.22;;;5.23;100.00
66547;BME280;53400;50.364;14.874;2023-02-22T06:20:24;98623.41;;;5.51;100.00
66547;BME280;53400;50.364;14.874;2023-02-22T06:22:54;98626.13;;;5.38;100.00
66547;BME280;53400;50.364;14.874;2023-02-22T06:25:23;98622.66;;;5.38;100.00
66547;BME280;53400;50.364;14.874;2023-02-22T06:27:56;98618.75;;;5.40;100.00
66547;BME280;53400;50.364;14.874;2023-02-22T06:30:32;98618.56;;;5.35;100.00
66547;BME280;53400;50.364;14.874;2023-02-22T06:33:12;98626.41;;;5.23;100.00
66547;BME280;53400;50.364;14.874;2023-02-22T06:35:48;98629.16;;;4.97;100.00
66547;BME280;53400;50.364;14.874;2023-02-22T06:38:22;98634.34;;;5.30;100.00
66547;BME280;53400;50.364;14.874;2023-02-22T06:40:54;98634.69;;;5.85;100.00
66547;BME280;53400;50.364;14.874;2023-02-22T06:43:33;98637.91;;;5.87;100.00
66547;BME280;53400;50.364;14.874;2023-02-22T06:46:06;98641.41;;;5.88;100.00
66547;BME280;53400;50.364;14.874;2023-02-22T06:48:36;98639.34;;;5.90;100.00
66547;BME280;53400;50.364;14.874;2023-02-22T06:51:09;98645.94;;;5.81;100.00
66547;BME280;53400;50.364;14.874;2023-02-22T06:53:38;98651.19;;;5.87;100.00
66547;BME280;53400;50.364;14.874;2023-02-22T06:56:05;98643.97;;;6.08;100.00
66547;BME280;53400;50.364;14.874;2023-02-22T06:58:31;98657.94;;;6.28;100.00
66547;BME280;53400;50.364;14.874;2023-02-22T07:00:57;98656.50;;;6.26;100.00
66547;BME280;53400;50.364;14.874;2023-02-22T07:03:23;98653.47;;;6.22;100.00
66547;BME280;53400;50.364;14.874;2023-02-22T07:05:48;98653.66;;;6.27;100.00
66547;BME280;53400;50.364;14.874;2023-02-22T07:08:14;98659.63;;;6.73;100.00
66547;BME280;53400;50.364;14.874;2023-02-22T07:10:41;98657.91;;;6.78;100.00
66547;BME280;53400;50.364;14.874;2023-02-22T07:13:08;98667.16;;;6.51;100.00
66547;BME280;53400;50.364;14.874;2023-02-22T07:15:34;98660.94;;;6.07;100.00
66547;BME280;53400;50.364;14.874;2023-02-22T07:18:00;98662.81;;;5.61;100.00
66547;BME280;53400;50.364;14.874;2023-02-22T07:20:29;98668.63;;;5.45;100.00
66547;BME280;53400;50.364;14.874;2023-02-22T07:22:55;98666.88;;;4.99;100.00
66547;BME280;53400;50.364;14.874;2023-02-22T07:25:22;98665.66;;;5.15;100.00
66547;BME280;53400;50.364;14.874;2023-02-22T07:27:50;98662.31;;;5.26;100.00
66547;BME280;53400;50.364;14.874;2023-02-22T07:30:18;98662.72;;;5.36;100.00
66547;BME280;53400;50.364;14.874;2023-02-22T07:32:45;98660.09;;;5.29;100.00
66547;BME280;53400;50.364;14.874;2023-02-22T07:35:15;98666.19;;;5.37;100.00
66547;BME280;53400;50.364;14.874;2023-02-22T07:37:41;98664.13;;;5.32;100.00
66547;BME280;53400;50.364;14.874;2023-02-22T07:40:08;98668.47;;;5.71;100.00
66547;BME280;53400;50.364;14.874;2023-02-22T07:42:55;98671.06;;;5.85;100.00
66547;BME280;53400;50.364;14.874;2023-02-22T07:45:22;98668.72;;;5.63;100.00
66547;BME280;53400;50.364;14.874;2023-02-22T07:47:50;98672.69;;;5.86;100.00
66547;BME280;53400;50.364;14.874;2023-02-22T07:50:17;98665.09;;;5.89;100.00
66547;BME280;53400;50.364;14.874;2023-02-22T07:52:45;98670.69;;;5.74;100.00
66547;BME280;53400;50.364;14.874;2023-02-22T07:55:13;98675.72;;;5.96;100.00
66547;BME280;53400;50.364;14.874;2023-02-22T07:57:39;98662.34;;;5.71;100.00
66547;BME280;53400;50.364;14.874;2023-02-22T08:00:07;98665.53;;;5.86;100.00
66547;BME280;53400;50.364;14.874;2023-02-22T08:02:34;98668.16;;;6.00;100.00
66547;BME280;53400;50.364;14.874;2023-02-22T08:05:00;98661.03;;;5.93;100.00
66547;BME280;53400;50.364;14.874;2023-02-22T08:07:26;98668.59;;;5.96;100.00
66547;BME280;53400;50.364;14.874;2023-02-22T08:09:52;98669.31;;;6.10;100.00
66547;BME280;53400;50.364;14.874;2023-02-22T08:12:18;98679.41;;;6.27;100.00
66547;BME280;53400;50.364;14.874;2023-02-22T08:14:44;98680.13;;;6.15;100.00
66547;BME280;53400;50.364;14.874;2023-02-22T08:17:11;98676.88;;;6.38;100.00
66547;BME280;53400;50.364;14.874;2023-02-22T08:19:37;98682.25;;;6.32;100.00
66547;BME280;53400;50.364;14.874;2023-02-22T08:22:03;98677.84;;;6.94;100.00
66547;BME280;53400;50.364;14.874;2023-02-22T08:24:29;98677.72;;;6.64;100.00
66547;BME280;53400;50.364;14.874;2023-02-22T08:26:57;98677.38;;;6.79;100.00
66547;BME280;53400;50.364;14.874;2023-02-22T08:29:23;98684.06;;;6.88;100.00
66547;BME280;53400;50.364;14.874;2023-02-22T08:31:52;98682.34;;;7.12;100.00
66547;BME280;53400;50.364;14.874;2023-02-22T08:34:19;98687.38;;;7.02;99.95
66547;BME280;53400;50.364;14.874;2023-02-22T08:36:45;98679.38;;;6.83;100.00
66547;BME280;53400;50.364;14.874;2023-02-22T08:39:11;98683.78;;;6.46;100.00
66547;BME280;53400;50.364;14.874;2023-02-22T08:41:37;98680.03;;;6.54;100.00
66547;BME280;53400;50.364;14.874;2023-02-22T08:44:03;98680.06;;;6.72;100.00
66547;BME280;53400;50.364;14.874;2023-02-22T08:46:29;98682.88;;;6.59;100.00
66547;BME280;53400;50.364;14.874;2023-02-22T08:48:55;98676.28;;;6.36;100.00
66547;BME280;53400;50.364;14.874;2023-02-22T08:51:22;98679.53;;;6.38;100.00
66547;BME280;53400;50.364;14.874;2023-02-22T08:53:48;98685.41;;;6.47;100.00
66547;BME280;53400;50.364;14.874;2023-02-22T08:56:15;98684.38;;;6.48;100.00
66547;BME280;53400;50.364;14.874;2023-02-22T08:58:40;98691.16;;;6.44;100.00
66547;BME280;53400;50.364;14.874;2023-02-22T09:01:07;98686.59;;;6.51;100.00
66547;BME280;53400;50.364;14.874;2023-02-22T09:03:33;98687.03;;;6.48;100.00
66547;BME280;53400;50.364;14.874;2023-02-22T09:05:59;98683.13;;;6.51;100.00
66547;BME280;53400;50.364;14.874;2023-02-22T09:08:26;98686.34;;;6.59;100.00
66547;BME280;53400;50.364;14.874;2023-02-22T09:10:52;98677.16;;;6.55;100.00
66547;BME280;53400;50.364;14.874;2023-02-22T09:13:18;98687.69;;;6.69;100.00
66547;BME280;53400;50.364;14.874;2023-02-22T09:15:44;98681.00;;;6.84;100.00
66547;BME280;53400;50.364;14.874;2023-02-22T09:18:11;98678.75;;;7.06;100.00
66547;BME280;53400;50.364;14.874;2023-02-22T09:20:39;98678.59;;;7.56;100.00
66547;BME280;53400;50.364;14.874;2023-02-22T09:23:06;98687.31;;;7.64;100.00
66547;BME280;53400;50.364;14.874;2023-02-22T09:25:36;98682.16;;;7.32;100.00
66547;BME280;53400;50.364;14.874;2023-02-22T09:28:05;98680.28;;;7.32;100.00
66547;BME280;53400;50.364;14.874;2023-02-22T09:30:33;98684.81;;;7.32;100.00
66547;BME280;53400;50.364;14.874;2023-02-22T09:33:00;98687.31;;;7.27;100.00
66547;BME280;53400;50.364;14.874;2023-02-22T09:35:27;98683.47;;;7.41;100.00
66547;BME280;53400;50.364;14.874;2023-02-22T09:37:54;98684.66;;;7.45;100.00
66547;BME280;53400;50.364;14.874;2023-02-22T09:40:21;98686.66;;;7.50;100.00
66547;BME280;53400;50.364;14.874;2023-02-22T09:43:00;98678.81;;;7.55;100.00
66547;BME280;53400;50.364;14.874;2023-02-22T09:45:31;98676.38;;;7.53;100.00
66547;BME280;53400;50.364;14.874;2023-02-22T09:48:02;98677.25;;;7.66;100.00
66547;BME280;53400;50.364;14.874;2023-02-22T09:50:33;98675.16;;;7.68;100.00
66547;BME280;53400;50.364;14.874;2023-02-22T09:53:02;98672.59;;;7.61;100.00
66547;BME280;53400;50.364;14.874;2023-02-22T09:55:32;98676.41;;;7.84;98.98
66547;BME280;53400;50.364;14.874;2023-02-22T09:58:02;98666.03;;;7.75;100.00
66547;BME280;53400;50.364;14.874;2023-02-22T10:00:32;98667.88;;;7.75;100.00
66547;BME280;53400;50.364;14.874;2023-02-22T10:03:11;98676.09;;;7.92;100.00
66547;BME280;53400;50.364;14.874;2023-02-22T10:05:46;98666.78;;;8.13;99.53
66547;BME280;53400;50.364;14.874;2023-02-22T10:08:15;98669.88;;;8.52;98.09
66547;BME280;53400;50.364;14.874;2023-02-22T10:10:45;98673.19;;;8.35;96.15
66547;BME280;53400;50.364;14.874;2023-02-22T10:13:22;98675.84;;;8.35;93.92
66547;BME280;53400;50.364;14.874;2023-02-22T10:15:53;98672.69;;;8.26;95.27
66547;BME280;53400;50.364;14.874;2023-02-22T10:21:40;98669.38;;;8.31;95.41
66547;BME280;53400;50.364;14.874;2023-02-22T10:24:17;98671.75;;;8.51;94.92
66547;BME280;53400;50.364;14.874;2023-02-22T10:26:50;98665.16;;;8.77;93.84
66547;BME280;53400;50.364;14.874;2023-02-22T10:29:21;98658.72;;;8.55;95.10
66547;BME280;53400;50.364;14.874;2023-02-22T10:31:56;98658.88;;;8.71;94.52
66547;BME280;53400;50.364;14.874;2023-02-22T10:34:24;98656.09;;;8.90;93.98
66547;BME280;53400;50.364;14.874;2023-02-22T10:36:54;98655.84;;;9.03;93.26
66547;BME280;53400;50.364;14.874;2023-02-22T10:39:27;98650.50;;;9.03;92.54
66547;BME280;53400;50.364;14.874;2023-02-22T10:41:56;98659.63;;;9.31;91.68
66547;BME280;53400;50.364;14.874;2023-02-22T10:44:24;98658.28;;;8.93;92.77
66547;BME280;53400;50.364;14.874;2023-02-22T10:46:51;98659.34;;;8.80;94.09
66547;BME280;53400;50.364;14.874;2023-02-22T10:49:20;98647.47;;;9.00;94.42
66547;BME280;53400;50.364;14.874;2023-02-22T10:51:56;98655.88;;;8.68;94.57
66547;BME280;53400;50.364;14.874;2023-02-22T10:54:25;98651.66;;;9.07;93.90
66547;BME280;53400;50.364;14.874;2023-02-22T10:56:54;98647.94;;;8.96;92.62
66547;BME280;53400;50.364;14.874;2023-02-22T10:59:30;98647.34;;;9.06;91.51
66547;BME280;53400;50.364;14.874;2023-02-22T11:01:58;98647.94;;;9.20;88.87
66547;BME280;53400;50.364;14.874;2023-02-22T11:04:25;98635.50;;;9.26;88.97
66547;BME280;53400;50.364;14.874;2023-02-22T11:07:07;98638.91;;;9.50;88.02
66547;BME280;53400;50.364;14.874;2023-02-22T11:09:47;98638.38;;;9.36;89.39
66547;BME280;53400;50.364;14.874;2023-02-22T11:12:20;98637.88;;;9.39;90.11
66547;BME280;53400;50.364;14.874;2023-02-22T11:14:52;98635.03;;;9.57;87.41
66547;BME280;53400;50.364;14.874;2023-02-22T11:17:28;98628.19;;;8.98;91.34
66547;BME280;53400;50.364;14.874;2023-02-22T11:19:55;98635.53;;;9.02;91.18
66547;BME280;53400;50.364;14.874;2023-02-22T11:22:24;98634.75;;;9.42;89.38
66547;BME280;53400;50.364;14.874;2023-02-22T11:24:54;98626.06;;;9.63;87.28
66547;BME280;53400;50.364;14.874;2023-02-22T11:27:27;98623.88;;;9.20;89.37
66547;BME280;53400;50.364;14.874;2023-02-22T11:30:05;98621.69;;;9.05;89.34
66547;BME280;53400;50.364;14.874;2023-02-22T11:32:33;98620.75;;;9.11;90.10
66547;BME280;53400;50.364;14.874;2023-02-22T11:35:17;98617.16;;;9.46;89.44
66547;BME280;53400;50.364;14.874;2023-02-22T11:37:44;98608.69;;;8.97;88.53
66547;BME280;53400;50.364;14.874;2023-02-22T11:40:14;98602.72;;;9.18;89.54
66547;BME280;53400;50.364;14.874;2023-02-22T11:42:47;98605.47;;;9.35;89.12
66547;BME280;53400;50.364;14.874;2023-02-22T11:45:17;98603.56;;;9.19;89.36
66547;BME280;53400;50.364;14.874;2023-02-22T11:47:51;98585.94;;;8.94;90.38
66547;BME280;53400;50.364;14.874;2023-02-22T11:50:25;98593.47;;;9.09;90.42
66547;BME280;53400;50.364;14.874;2023-02-22T11:53:20;98586.16;;;9.05;90.59
66547;BME280;53400;50.364;14.874;2023-02-22T11:55:55;98586.97;;;9.46;88.49
66547;BME280;53400;50.364;14.874;2023-02-22T11:58:33;98588.78;;;9.28;89.09
66547;BME280;53400;50.364;14.874;2023-02-22T12:01:07;98591.59;;;9.10;90.60
66547;BME280;53400;50.364;14.874;2023-02-22T12:04:00;98594.72;;;9.18;90.19
66547;BME280;53400;50.364;14.874;2023-02-22T12:06:40;98593.22;;;9.11;89.55
66547;BME280;53400;50.364;14.874;2023-02-22T12:09:14;98591.59;;;9.10;89.11
66547;BME280;53400;50.364;14.874;2023-02-22T12:11:52;98588.16;;;9.38;87.49
66547;BME280;53400;50.364;14.874;2023-02-22T12:14:29;98584.59;;;9.21;88.64
66547;BME280;53400;50.364;14.874;2023-02-22T12:17:08;98584.72;;;9.26;88.72
66547;BME280;53400;50.364;14.874;2023-02-22T12:19:41;98582.13;;;9.31;89.76
66547;BME280;53400;50.364;14.874;2023-02-22T12:22:12;98582.84;;;9.26;90.18
66547;BME280;53400;50.364;14.874;2023-02-22T12:24:42;98579.13;;;9.27;88.76
66547;BME280;53400;50.364;14.874;2023-02-22T12:27:13;98573.84;;;9.44;88.51
66547;BME280;53400;50.364;14.874;2023-02-22T12:29:43;98579.34;;;9.37;87.84
66547;BME280;53400;50.364;14.874;2023-02-22T12:32:15;98568.72;;;9.42;89.39
66547;BME280;53400;50.364;14.874;2023-02-22T12:34:46;98573.16;;;9.37;87.79
66547;BME280;53400;50.364;14.874;2023-02-22T12:37:17;98566.00;;;9.54;87.72
66547;BME280;53400;50.364;14.874;2023-02-22T12:39:51;98566.16;;;9.48;87.37
66547;BME280;53400;50.364;14.874;2023-02-22T12:42:23;98571.94;;;9.73;88.21
66547;BME280;53400;50.364;14.874;2023-02-22T12:44:58;98565.91;;;9.95;86.09
66547;BME280;53400;50.364;14.874;2023-02-22T12:47:31;98570.09;;;9.74;85.07
66547;BME280;53400;50.364;14.874;2023-02-22T12:50:05;98567.81;;;9.65;86.07
66547;BME280;53400;50.364;14.874;2023-02-22T12:52:41;98569.06;;;9.46;85.58
66547;BME280;53400;50.364;14.874;2023-02-22T12:55:11;98569.41;;;9.50;85.74
66547;BME280;53400;50.364;14.874;2023-02-22T12:57:43;98564.56;;;9.63;85.10
66547;BME280;53400;50.364;14.874;2023-02-22T13:00:15;98556.94;;;9.55;85.69
66547;BME280;53400;50.364;14.874;2023-02-22T13:02:52;98564.41;;;9.53;85.86
66547;BME280;53400;50.364;14.874;2023-02-22T13:05:21;98564.63;;;9.52;85.71
66547;BME280;53400;50.364;14.874;2023-02-22T13:07:56;98559.69;;;9.44;84.39
66547;BME280;53400;50.364;14.874;2023-02-22T13:10:34;98560.44;;;9.56;83.18
66547;BME280;53400;50.364;14.874;2023-02-22T13:13:10;98565.34;;;9.47;84.50
66547;BME280;53400;50.364;14.874;2023-02-22T13:15:44;98570.41;;;9.60;84.86
66547;BME280;53400;50.364;14.874;2023-02-22T13:18:23;98566.59;;;9.56;85.19
66547;BME280;53400;50.364;14.874;2023-02-22T13:20:57;98560.94;;;9.70;84.90